createdAt,value
2023-03-29T00:01:43.365Z,2.85
2023-03-29T00:04:13.872Z,2.67
2023-03-29T00:06:41.978Z,2.40
2023-03-29T00:09:09.894Z,2.63
2023-03-29T00:11:36.543Z,2.67
2023-03-29T00:14:03.063Z,2.40
2023-03-29T00:16:32.455Z,2.47
2023-03-29T00:18:59.128Z,2.20
2023-03-29T00:21:25.638Z,2.67
2023-03-29T00:23:52.083Z,2.67
2023-03-29T00:26:18.622Z,2.25
2023-03-29T00:28:45.098Z,2.15
2023-03-29T00:31:14.889Z,2.55
2023-03-29T00:33:42.320Z,2.58
2023-03-29T00:36:11.204Z,2.63
2023-03-29T00:38:38.576Z,3.38
2023-03-29T00:41:06.804Z,2.97
2023-03-29T00:43:57.151Z,2.38
2023-03-29T00:46:24.614Z,2.17
2023-03-29T00:48:54.898Z,2.50
2023-03-29T00:51:25.031Z,2.30
2023-03-29T00:53:56.077Z,2.50
2023-03-29T00:56:37.036Z,2.23
2023-03-29T00:59:13.363Z,2.67
2023-03-29T01:01:45.786Z,2.90
2023-03-29T01:04:22.223Z,2.58
2023-03-29T01:07:28.397Z,2.60
2023-03-29T01:10:04.483Z,2.60
2023-03-29T01:12:36.041Z,3.20
2023-03-29T01:15:09.079Z,2.60
2023-03-29T01:17:35.673Z,2.53
2023-03-29T01:20:14.151Z,2.97
2023-03-29T01:23:08.287Z,2.83
2023-03-29T01:25:49.742Z,2.63
2023-03-29T01:28:28.384Z,3.00
2023-03-29T01:31:03.864Z,2.92
2023-03-29T01:33:37.502Z,2.67
2023-03-29T01:36:16.411Z,2.60
2023-03-29T01:39:05.022Z,3.72
2023-03-29T01:42:03.776Z,3.25
2023-03-29T01:44:56.536Z,3.05
2023-03-29T01:48:00.556Z,2.80
2023-03-29T01:50:43.166Z,3.10
2023-03-29T01:53:36.417Z,2.92
2023-03-29T01:56:08.703Z,3.13
2023-03-29T01:58:41.271Z,3.50
2023-03-29T02:01:10.980Z,3.30
2023-03-29T02:03:46.868Z,3.20
2023-03-29T02:06:18.880Z,3.30
2023-03-29T02:11:13.902Z,3.10
2023-03-29T02:13:41.110Z,3.50
2023-03-29T02:16:12.866Z,3.33
2023-03-29T02:18:42.452Z,3.50
2023-03-29T02:21:14.305Z,3.38
2023-03-29T02:23:46.619Z,3.20
2023-03-29T02:26:14.456Z,3.47
2023-03-29T02:28:42.252Z,3.65
2023-03-29T02:31:15.487Z,3.45
2023-03-29T02:33:58.745Z,3.75
2023-03-29T02:36:31.129Z,3.38
2023-03-29T02:39:00.784Z,3.65
2023-03-29T02:41:28.606Z,3.78
2023-03-29T02:43:57.372Z,4.20
2023-03-29T02:46:24.510Z,4.22
2023-03-29T02:48:53.309Z,3.70
2023-03-29T02:51:24.043Z,3.85
2023-03-29T02:54:19.455Z,4.18
2023-03-29T02:56:49.167Z,4.07
2023-03-29T02:59:19.363Z,3.80
2023-03-29T03:01:46.271Z,4.28
2023-03-29T03:04:13.352Z,4.18
2023-03-29T03:06:40.477Z,4.00
2023-03-29T03:09:07.630Z,4.47
2023-03-29T03:11:35.070Z,4.25
2023-03-29T03:14:01.822Z,4.30
2023-03-29T03:16:28.349Z,4.90
2023-03-29T03:18:55.710Z,4.95
2023-03-29T03:21:28.125Z,4.40
2023-03-29T03:23:55.789Z,4.95
2023-03-29T03:26:24.794Z,4.90
2023-03-29T03:28:51.278Z,4.55
2023-03-29T03:31:17.800Z,4.75
2023-03-29T03:33:44.719Z,4.13
2023-03-29T03:36:11.536Z,4.60
2023-03-29T03:38:38.374Z,4.82
2023-03-29T03:41:06.924Z,5.07
2023-03-29T03:43:34.479Z,5.07
2023-03-29T03:46:01.995Z,4.28
2023-03-29T03:48:28.586Z,4.93
2023-03-29T03:50:58.132Z,4.75
2023-03-29T03:53:28.521Z,5.10
2023-03-29T03:55:58.332Z,5.15
2023-03-29T03:58:28.411Z,5.50
2023-03-29T04:00:55.001Z,5.93
2023-03-29T04:03:21.743Z,5.70
2023-03-29T04:05:48.674Z,6.35
2023-03-29T04:08:15.186Z,6.40
2023-03-29T04:10:42.077Z,5.45
2023-03-29T04:13:08.538Z,5.97
2023-03-29T04:15:38.669Z,5.93
2023-03-29T04:18:07.203Z,6.22
2023-03-29T04:20:33.834Z,6.05
2023-03-29T04:23:00.468Z,6.38
2023-03-29T04:25:26.926Z,6.35
2023-03-29T04:27:56.887Z,5.93
2023-03-29T04:30:23.477Z,5.90
2023-03-29T04:32:50.121Z,6.78
2023-03-29T04:35:16.661Z,6.80
2023-03-29T04:37:43.631Z,6.50
2023-03-29T04:40:14.814Z,6.40
2023-03-29T04:42:45.843Z,7.07
2023-03-29T04:45:18.061Z,7.03
2023-03-29T04:47:45.668Z,6.40
2023-03-29T04:50:13.814Z,6.18
2023-03-29T04:52:40.904Z,6.18
2023-03-29T04:55:08.333Z,5.85
2023-03-29T04:57:34.826Z,6.45
2023-03-29T05:00:01.397Z,6.53
2023-03-29T05:02:32.453Z,6.20
2023-03-29T05:04:59.281Z,7.23
2023-03-29T05:07:28.373Z,6.03
2023-03-29T05:09:54.822Z,6.50
2023-03-29T05:12:21.313Z,6.50
2023-03-29T05:14:47.838Z,6.38
2023-03-29T05:17:14.395Z,6.53
2023-03-29T05:19:41.318Z,6.90
2023-03-29T05:22:08.955Z,7.05
2023-03-29T05:24:35.503Z,6.45
2023-03-29T05:27:02.222Z,6.72
2023-03-29T05:29:28.749Z,7.10
2023-03-29T05:31:55.313Z,7.25
2023-03-29T05:34:21.885Z,7.15
2023-03-29T05:36:49.094Z,6.78
2023-03-29T05:39:15.585Z,6.95
2023-03-29T05:41:42.038Z,7.50
2023-03-29T05:44:08.700Z,7.38
2023-03-29T05:46:35.974Z,7.00
2023-03-29T05:49:02.630Z,6.82
2023-03-29T05:51:29.358Z,6.18
2023-03-29T05:53:55.894Z,6.28
2023-03-29T05:56:22.599Z,6.70
2023-03-29T05:58:49.465Z,6.50
2023-03-29T06:01:18.002Z,5.97
2023-03-29T06:03:46.217Z,6.43
2023-03-29T06:06:18.867Z,6.90
2023-03-29T06:08:45.368Z,6.57
2023-03-29T06:11:13.447Z,6.45
2023-03-29T06:13:41.519Z,6.50
2023-03-29T06:16:09.432Z,6.80
2023-03-29T06:18:36.576Z,6.43
2023-03-29T06:21:04.063Z,6.07
2023-03-29T06:23:31.340Z,6.70
2023-03-29T06:26:00.181Z,6.25
2023-03-29T06:28:26.971Z,6.00
2023-03-29T06:30:56.190Z,6.60
2023-03-29T06:33:24.216Z,6.18
2023-03-29T06:35:50.796Z,6.25
2023-03-29T06:38:17.304Z,6.47
2023-03-29T06:40:44.722Z,6.05
2023-03-29T06:43:11.277Z,5.75
2023-03-29T06:45:38.796Z,6.53
2023-03-29T06:48:08.002Z,6.03
2023-03-29T06:50:35.399Z,6.57
2023-03-29T06:53:02.238Z,6.03
2023-03-29T06:55:28.801Z,6.13
2023-03-29T06:57:55.639Z,5.90
2023-03-29T07:00:28.617Z,6.38
2023-03-29T07:02:56.574Z,5.28
2023-03-29T07:05:23.967Z,6.10
2023-03-29T07:07:55.110Z,5.95
2023-03-29T07:10:28.064Z,5.67
2023-03-29T07:12:55.271Z,5.72
2023-03-29T07:15:22.318Z,5.47
2023-03-29T07:17:49.278Z,6.70
2023-03-29T07:20:16.692Z,5.43
2023-03-29T07:22:44.709Z,5.80
2023-03-29T07:25:12.273Z,6.53
2023-03-29T07:27:40.855Z,6.03
2023-03-29T07:30:12.179Z,6.30
2023-03-29T07:32:39.571Z,5.97
2023-03-29T07:35:07.998Z,5.63
2023-03-29T07:37:37.433Z,6.07
2023-03-29T07:40:09.143Z,5.60
2023-03-29T07:42:38.774Z,5.20
2023-03-29T07:45:07.033Z,6.10
2023-03-29T07:47:35.262Z,5.50
2023-03-29T07:50:02.393Z,5.95
2023-03-29T07:52:30.054Z,5.47
2023-03-29T07:54:57.428Z,5.47
2023-03-29T07:57:25.451Z,5.35
2023-03-29T07:59:53.027Z,5.47
2023-03-29T08:02:21.017Z,5.50
2023-03-29T08:04:47.895Z,4.72
2023-03-29T08:07:17.030Z,5.22
2023-03-29T08:09:45.563Z,5.45
2023-03-29T08:12:12.150Z,5.25
2023-03-29T08:14:38.700Z,5.03
2023-03-29T08:17:05.317Z,5.60
2023-03-29T08:19:32.270Z,5.63
2023-03-29T08:21:59.057Z,5.38
2023-03-29T08:24:26.443Z,4.93
2023-03-29T08:26:53.415Z,4.93
2023-03-29T08:29:19.919Z,5.22
2023-03-29T08:31:46.497Z,5.20
2023-03-29T08:34:13.322Z,5.03
2023-03-29T08:36:40.321Z,5.30
2023-03-29T08:39:06.805Z,4.80
2023-03-29T08:41:42.660Z,4.82
2023-03-29T08:44:20.355Z,4.65
2023-03-29T08:47:01.818Z,4.40
2023-03-29T08:49:29.125Z,4.20
2023-03-29T08:52:00.446Z,4.65
2023-03-29T08:54:33.160Z,4.80
2023-03-29T08:57:37.501Z,4.00
2023-03-29T09:00:07.038Z,4.63
2023-03-29T09:02:36.053Z,4.53
2023-03-29T09:05:14.616Z,5.03
2023-03-29T09:07:44.546Z,5.65
2023-03-29T09:10:18.314Z,4.85
2023-03-29T09:13:03.824Z,4.45
2023-03-29T09:15:45.045Z,4.68
2023-03-29T09:18:33.186Z,4.37
2023-03-29T09:21:16.449Z,4.50
2023-03-29T09:23:49.113Z,4.63
2023-03-29T09:26:31.162Z,4.50
2023-03-29T09:29:17.866Z,4.75
2023-03-29T09:31:45.212Z,5.00
2023-03-29T09:34:18.468Z,4.75
2023-03-29T09:36:53.965Z,5.05
2023-03-29T09:39:22.196Z,4.13
2023-03-29T09:42:04.449Z,4.30
2023-03-29T09:44:38.640Z,4.65
2023-03-29T09:47:19.009Z,4.57
2023-03-29T09:49:49.291Z,4.40
2023-03-29T09:52:18.168Z,4.55
2023-03-29T09:54:44.758Z,4.60
2023-03-29T09:57:17.308Z,5.05
2023-03-29T09:59:49.975Z,4.50
2023-03-29T10:02:20.363Z,4.60
2023-03-29T10:04:55.654Z,4.35
2023-03-29T10:07:22.685Z,4.65
2023-03-29T10:09:52.004Z,4.57
2023-03-29T10:12:19.929Z,3.95
2023-03-29T10:14:53.008Z,4.13
2023-03-29T10:17:29.336Z,3.70
2023-03-29T10:19:58.668Z,4.03
2023-03-29T10:22:34.565Z,3.70
2023-03-29T10:25:01.115Z,3.65
2023-03-29T10:27:29.444Z,3.75
2023-03-29T10:29:58.279Z,3.60
2023-03-29T10:32:35.625Z,3.90
2023-03-29T10:35:19.173Z,3.67
2023-03-29T10:37:50.631Z,3.50
2023-03-29T10:40:45.059Z,4.07
2023-03-29T10:43:13.142Z,3.70
2023-03-29T10:45:40.226Z,3.70
2023-03-29T10:48:14.437Z,3.60
2023-03-29T10:50:41.578Z,3.13
2023-03-29T10:53:24.097Z,3.45
2023-03-29T10:56:09.358Z,3.17
2023-03-29T10:59:01.343Z,3.10
2023-03-29T11:01:54.426Z,3.22
2023-03-29T11:04:46.544Z,3.08
2023-03-29T11:07:19.723Z,3.47
2023-03-29T11:10:25.964Z,3.13
2023-03-29T11:13:14.216Z,3.38
2023-03-29T11:16:02.540Z,5.75
2023-03-29T11:18:54.299Z,4.65
2023-03-29T11:21:46.923Z,3.42
2023-03-29T11:24:38.121Z,3.05
2023-03-29T11:27:19.881Z,3.50
2023-03-29T11:30:13.205Z,4.35
2023-03-29T11:33:12.239Z,3.75
2023-03-29T11:35:57.163Z,2.92
2023-03-29T11:38:34.329Z,3.65
2023-03-29T11:41:08.467Z,2.97
2023-03-29T11:43:55.073Z,3.17
2023-03-29T11:46:37.831Z,3.95
2023-03-29T11:49:13.827Z,2.50
2023-03-29T11:51:57.805Z,2.47
2023-03-29T11:54:31.416Z,2.60
2023-03-29T11:57:18.734Z,2.67
2023-03-29T12:00:12.417Z,2.90
2023-03-29T12:02:46.144Z,2.70
2023-03-29T12:05:22.731Z,2.40
2023-03-29T12:08:00.797Z,2.25
2023-03-29T12:10:34.451Z,2.17
2023-03-29T12:13:10.459Z,1.80
2023-03-29T12:15:44.319Z,1.80
2023-03-29T12:18:22.632Z,2.40
2023-03-29T12:20:55.932Z,2.00
2023-03-29T12:23:22.592Z,2.00
2023-03-29T12:26:08.653Z,2.20
2023-03-29T12:28:59.734Z,2.15
2023-03-29T12:31:51.033Z,2.50
2023-03-29T12:34:36.468Z,2.30
2023-03-29T12:37:03.472Z,2.30
2023-03-29T12:39:32.814Z,2.47
2023-03-29T12:42:17.739Z,2.47
2023-03-29T12:44:50.535Z,2.40
2023-03-29T12:47:26.200Z,3.03
2023-03-29T12:49:56.567Z,2.40
2023-03-29T12:52:35.272Z,2.00
2023-03-29T12:55:05.231Z,2.45
2023-03-29T12:57:44.351Z,3.00
2023-03-29T13:00:21.950Z,2.38
2023-03-29T13:03:17.962Z,2.20
2023-03-29T13:05:44.581Z,2.65
2023-03-29T13:08:42.346Z,2.20
2023-03-29T13:11:25.506Z,2.70
2023-03-29T13:13:52.313Z,2.30
2023-03-29T13:16:28.227Z,2.22
2023-03-29T13:19:06.662Z,2.47
2023-03-29T13:21:59.817Z,2.83
2023-03-29T13:24:41.997Z,2.55
2023-03-29T13:30:29.891Z,2.10
2023-03-29T13:33:16.892Z,2.30
2023-03-29T13:36:21.151Z,2.35
2023-03-29T13:38:49.925Z,3.00
2023-03-29T13:41:31.869Z,2.45
2023-03-29T13:43:58.691Z,2.65
2023-03-29T13:46:38.643Z,2.55
2023-03-29T13:49:14.376Z,2.53
2023-03-29T13:51:47.619Z,3.05
2023-03-29T13:54:20.279Z,2.90
2023-03-29T13:57:10.139Z,2.40
2023-03-29T13:59:52.168Z,2.60
2023-03-29T14:02:36.853Z,2.70
2023-03-29T14:05:05.717Z,2.63
2023-03-29T14:07:35.607Z,2.55
2023-03-29T14:10:02.502Z,2.58
2023-03-29T14:12:36.001Z,2.88
2023-03-29T14:15:05.793Z,3.70
2023-03-29T14:17:33.598Z,4.07
2023-03-29T14:20:02.829Z,4.07
2023-03-29T14:22:32.758Z,4.72
2023-03-29T14:25:07.299Z,4.55
2023-03-29T14:27:37.115Z,4.80
2023-03-29T14:30:22.089Z,4.97
2023-03-29T14:32:50.623Z,5.32
2023-03-29T14:35:17.547Z,5.50
2023-03-29T14:37:45.001Z,4.57
2023-03-29T14:40:21.072Z,4.40
2023-03-29T14:42:48.735Z,4.45
2023-03-29T14:45:18.680Z,5.25
2023-03-29T14:47:46.430Z,4.13
2023-03-29T14:50:26.610Z,4.57
2023-03-29T14:52:54.396Z,4.72
2023-03-29T14:55:23.843Z,8.90
2023-03-29T14:57:53.236Z,5.38
2023-03-29T15:00:26.795Z,8.85
2023-03-29T15:02:57.484Z,5.90
2023-03-29T15:05:39.526Z,5.80
2023-03-29T15:08:10.314Z,6.15
2023-03-29T15:10:38.695Z,5.60
2023-03-29T15:13:07.781Z,5.63
2023-03-29T15:15:38.413Z,5.20
2023-03-29T15:18:08.019Z,4.80
2023-03-29T15:20:38.322Z,4.75
2023-03-29T15:23:21.137Z,5.10
2023-03-29T15:25:56.903Z,5.95
2023-03-29T15:28:32.652Z,4.72
2023-03-29T15:31:11.162Z,5.07
2023-03-29T15:33:39.995Z,5.30
2023-03-29T15:36:08.891Z,5.00
2023-03-29T15:38:43.823Z,4.88
2023-03-29T15:41:12.235Z,5.80
2023-03-29T15:43:40.636Z,6.18
2023-03-29T15:46:07.541Z,5.75
2023-03-29T15:48:34.297Z,5.57
2023-03-29T15:51:04.807Z,4.30
2023-03-29T15:56:04.021Z,5.45
2023-03-29T15:58:32.428Z,4.70
2023-03-29T16:01:19.326Z,5.18
2023-03-29T16:03:47.800Z,4.15
2023-03-29T16:06:14.993Z,4.95
2023-03-29T16:08:41.847Z,4.63
2023-03-29T16:11:08.348Z,4.90
2023-03-29T16:13:34.947Z,5.20
2023-03-29T16:16:01.923Z,5.80
2023-03-29T16:18:28.584Z,4.60
2023-03-29T16:20:59.350Z,5.85
2023-03-29T16:23:26.502Z,5.03
2023-03-29T16:25:53.142Z,5.70
2023-03-29T16:28:19.606Z,5.28
2023-03-29T16:30:46.582Z,4.65
2023-03-29T16:33:13.171Z,4.75
2023-03-29T16:35:40.410Z,4.65
2023-03-29T16:38:08.146Z,4.28
2023-03-29T16:40:35.916Z,4.47
2023-03-29T16:43:02.822Z,3.92
2023-03-29T16:45:38.472Z,4.20
2023-03-29T16:48:05.109Z,4.82
2023-03-29T16:50:31.698Z,4.75
2023-03-29T16:52:58.170Z,4.10
2023-03-29T16:55:24.682Z,4.68
2023-03-29T16:57:52.201Z,4.20
2023-03-29T17:00:20.203Z,4.28
2023-03-29T17:02:49.724Z,4.38
2023-03-29T17:05:17.540Z,4.20
2023-03-29T17:07:44.397Z,4.60
2023-03-29T17:10:12.351Z,4.38
2023-03-29T17:12:39.004Z,4.57
2023-03-29T17:15:07.526Z,4.40
2023-03-29T17:17:34.785Z,4.47
2023-03-29T17:20:01.537Z,4.95
2023-03-29T17:22:28.067Z,4.55
2023-03-29T17:24:54.557Z,4.50
2023-03-29T17:27:21.206Z,5.22
2023-03-29T17:29:47.906Z,4.22
2023-03-29T17:32:14.485Z,4.65
2023-03-29T17:34:41.565Z,4.30
2023-03-29T17:37:08.088Z,4.10
2023-03-29T17:39:37.447Z,4.10
2023-03-29T17:42:04.911Z,4.35
2023-03-29T17:44:33.178Z,4.53
2023-03-29T17:47:00.502Z,4.20
2023-03-29T17:49:27.167Z,3.80
2023-03-29T17:51:53.656Z,3.80
2023-03-29T17:54:20.189Z,4.10
2023-03-29T17:56:46.741Z,4.50
2023-03-29T17:59:13.226Z,3.75
2023-03-29T18:01:39.975Z,3.65
2023-03-29T18:04:06.621Z,3.85
2023-03-29T18:06:33.374Z,3.63
2023-03-29T18:09:01.552Z,4.05
2023-03-29T18:11:28.479Z,4.03
2023-03-29T18:13:59.230Z,3.95
2023-03-29T18:16:26.068Z,4.50
2023-03-29T18:18:52.588Z,4.60
2023-03-29T18:21:19.159Z,4.90
2023-03-29T18:23:47.608Z,3.90
2023-03-29T18:26:16.306Z,3.88
2023-03-29T18:28:46.947Z,4.55
2023-03-29T18:31:14.242Z,3.40
2023-03-29T18:33:40.833Z,3.67
2023-03-29T18:36:10.836Z,4.15
2023-03-29T18:38:40.494Z,4.55
2023-03-29T18:41:08.536Z,4.35
2023-03-29T18:43:37.012Z,4.25
2023-03-29T18:46:03.933Z,3.97
2023-03-29T18:48:34.291Z,3.97
2023-03-29T18:51:01.205Z,4.13
2023-03-29T18:53:28.334Z,5.25
2023-03-29T18:55:55.671Z,4.45
2023-03-29T18:58:24.015Z,3.97
2023-03-29T19:00:51.347Z,4.47
2023-03-29T19:03:18.326Z,4.25
2023-03-29T19:05:44.882Z,4.10
2023-03-29T19:08:11.379Z,4.18
2023-03-29T19:10:39.221Z,4.45
2023-03-29T19:13:06.103Z,4.07
2023-03-29T19:15:33.866Z,4.18
2023-03-29T19:18:00.461Z,4.13
2023-03-29T19:20:27.389Z,3.92
2023-03-29T19:22:53.991Z,3.78
2023-03-29T19:25:20.668Z,3.60
2023-03-29T19:27:47.734Z,3.83
2023-03-29T19:30:14.695Z,3.53
2023-03-29T19:32:41.171Z,4.00
2023-03-29T19:35:09.556Z,3.90
2023-03-29T19:37:36.198Z,3.90
2023-03-29T19:40:03.692Z,3.80
2023-03-29T19:42:30.362Z,4.00
2023-03-29T19:44:56.866Z,4.47
2023-03-29T19:47:23.335Z,4.28
2023-03-29T19:49:50.250Z,3.92
2023-03-29T19:52:16.731Z,4.63
2023-03-29T19:54:44.198Z,4.30
2023-03-29T19:57:10.711Z,4.35
2023-03-29T19:59:37.831Z,4.47
2023-03-29T20:02:04.646Z,4.63
2023-03-29T20:04:33.318Z,4.60
2023-03-29T20:07:00.039Z,4.32
2023-03-29T20:09:26.547Z,4.20
2023-03-29T20:11:53.004Z,4.30
2023-03-29T20:14:19.593Z,4.38
2023-03-29T20:16:46.554Z,4.13
2023-03-29T20:19:17.818Z,4.03
2023-03-29T20:21:44.556Z,4.07
2023-03-29T20:24:15.060Z,3.53
2023-03-29T20:26:41.557Z,3.88
2023-03-29T20:29:08.328Z,4.25
2023-03-29T20:31:35.004Z,3.50
2023-03-29T20:34:01.534Z,4.15
2023-03-29T20:36:30.638Z,4.22
2023-03-29T20:38:59.145Z,4.15
2023-03-29T20:41:26.172Z,3.78
2023-03-29T20:43:58.406Z,4.22
2023-03-29T20:46:38.050Z,3.92
2023-03-29T20:49:07.310Z,3.88
2023-03-29T20:51:33.828Z,3.90
2023-03-29T20:54:02.815Z,4.50
2023-03-29T20:56:35.635Z,4.05
2023-03-29T20:59:03.869Z,4.05
2023-03-29T21:01:30.664Z,3.90
2023-03-29T21:03:57.324Z,3.60
2023-03-29T21:06:26.690Z,3.90
2023-03-29T21:08:53.166Z,3.67
2023-03-29T21:11:20.896Z,3.67
2023-03-29T21:13:47.629Z,3.80
2023-03-29T21:16:14.304Z,3.63
2023-03-29T21:18:41.571Z,4.03
2023-03-29T21:21:09.954Z,5.00
2023-03-29T21:23:37.145Z,4.45
2023-03-29T21:26:06.737Z,4.70
2023-03-29T21:28:34.055Z,5.00
2023-03-29T21:31:05.066Z,5.07
2023-03-29T21:33:32.231Z,4.70
2023-03-29T21:35:58.827Z,5.00
2023-03-29T21:38:25.346Z,4.93
2023-03-29T21:40:51.916Z,4.53
2023-03-29T21:43:18.582Z,5.40
2023-03-29T21:45:49.583Z,4.80
2023-03-29T21:48:19.533Z,5.30
2023-03-29T21:50:49.127Z,5.32
2023-03-29T21:53:16.098Z,5.40
2023-03-29T21:55:42.619Z,5.03
2023-03-29T21:58:09.125Z,5.63
2023-03-29T22:00:35.830Z,5.10
2023-03-29T22:03:02.405Z,5.05
2023-03-29T22:05:28.890Z,5.30
2023-03-29T22:07:58.702Z,4.57
2023-03-29T22:10:25.500Z,4.97
2023-03-29T22:12:52.550Z,5.65
2023-03-29T22:15:22.651Z,4.93
2023-03-29T22:17:52.900Z,4.95
2023-03-29T22:20:19.874Z,4.90
2023-03-29T22:22:52.338Z,4.75
2023-03-29T22:25:19.565Z,4.72
2023-03-29T22:27:47.869Z,4.63
2023-03-29T22:30:15.602Z,4.65
2023-03-29T22:32:42.366Z,4.35
2023-03-29T22:35:09.372Z,4.65
2023-03-29T22:37:46.077Z,5.00
2023-03-29T22:40:16.222Z,4.28
2023-03-29T22:42:42.758Z,4.15
2023-03-29T22:45:09.868Z,4.40
2023-03-29T22:47:36.375Z,4.13
2023-03-29T22:50:03.141Z,4.28
2023-03-29T22:52:29.628Z,3.45
2023-03-29T22:54:59.370Z,3.95
2023-03-29T22:57:26.115Z,4.05
2023-03-29T22:59:52.585Z,4.22
2023-03-29T23:02:19.088Z,3.80
2023-03-29T23:04:45.767Z,3.70
2023-03-29T23:07:12.349Z,3.85
2023-03-29T23:09:38.816Z,3.97
2023-03-29T23:12:05.539Z,3.30
2023-03-29T23:14:35.523Z,3.55
2023-03-29T23:17:01.985Z,3.55
2023-03-29T23:19:28.528Z,4.00
2023-03-29T23:21:55.193Z,3.25
2023-03-29T23:24:21.770Z,3.33
2023-03-29T23:26:48.977Z,3.58
2023-03-29T23:29:15.493Z,3.13
2023-03-29T23:31:41.995Z,3.60
2023-03-29T23:34:09.301Z,3.30
2023-03-29T23:36:36.934Z,3.28
2023-03-29T23:39:07.086Z,3.50
2023-03-29T23:41:33.823Z,3.20
2023-03-29T23:44:00.359Z,3.60
2023-03-29T23:46:26.815Z,3.28
2023-03-29T23:48:56.148Z,3.53
2023-03-29T23:51:23.082Z,3.30
2023-03-29T23:53:50.445Z,3.10
2023-03-29T23:56:16.936Z,3.10
2023-03-29T23:58:44.456Z,3.40
